sensor_id;sensor_type;location;lat;lon;timestamp;pressure;altitude;pressure_sealevel;temperature;humidity
5777;BME280;2914;42.668;23.346;2023-05-09T00:01:28;94798.08;;;16.15;88.45
5777;BME280;2914;42.668;23.346;2023-05-09T00:03:58;94793.13;;;16.07;88.59
5777;BME280;2914;42.668;23.346;2023-05-09T00:06:27;94791.91;;;16.14;88.34
5777;BME280;2914;42.668;23.346;2023-05-09T00:08:56;94791.94;;;16.06;88.24
5777;BME280;2914;42.668;23.346;2023-05-09T00:11:25;94789.14;;;16.03;88.34
5777;BME280;2914;42.668;23.346;2023-05-09T00:13:54;94787.13;;;16.05;88.44
5777;BME280;2914;42.668;23.346;2023-05-09T00:16:24;94792.82;;;15.90;89.76
5777;BME280;2914;42.668;23.346;2023-05-09T00:18:55;94787.97;;;15.73;90.55
5777;BME280;2914;42.668;23.346;2023-05-09T00:21:24;94797.29;;;15.89;89.57
5777;BME280;2914;42.668;23.346;2023-05-09T00:23:54;94799.62;;;15.97;88.93
5777;BME280;2914;42.668;23.346;2023-05-09T00:26:23;94800.79;;;15.94;88.23
5777;BME280;2914;42.668;23.346;2023-05-09T00:28:52;94789.83;;;15.85;88.97
5777;BME280;2914;42.668;23.346;2023-05-09T00:31:21;94784.33;;;15.70;90.72
5777;BME280;2914;42.668;23.346;2023-05-09T00:33:52;94785.98;;;15.79;90.03
5777;BME280;2914;42.668;23.346;2023-05-09T00:36:21;94782.18;;;15.69;90.54
5777;BME280;2914;42.668;23.346;2023-05-09T00:38:50;94782.34;;;15.76;89.81
5777;BME280;2914;42.668;23.346;2023-05-09T00:41:19;94787.31;;;15.79;89.56
5777;BME280;2914;42.668;23.346;2023-05-09T00:43:48;94779.86;;;15.87;89.04
5777;BME280;2914;42.668;23.346;2023-05-09T00:46:17;94780.35;;;15.82;89.35
5777;BME280;2914;42.668;23.346;2023-05-09T00:48:46;94777.50;;;15.75;90.46
5777;BME280;2914;42.668;23.346;2023-05-09T00:51:16;94783.70;;;15.80;89.89
5777;BME280;2914;42.668;23.346;2023-05-09T00:53:45;94780.19;;;15.80;89.79
5777;BME280;2914;42.668;23.346;2023-05-09T00:56:15;94778.20;;;15.86;89.18
5777;BME280;2914;42.668;23.346;2023-05-09T00:58:45;94780.85;;;15.65;89.95
5777;BME280;2914;42.668;23.346;2023-05-09T01:01:14;94780.52;;;15.60;91.06
5777;BME280;2914;42.668;23.346;2023-05-09T01:03:43;94777.20;;;15.62;90.85
5777;BME280;2914;42.668;23.346;2023-05-09T01:06:16;94778.68;;;15.56;91.72
5777;BME280;2914;42.668;23.346;2023-05-09T01:08:50;94776.19;;;15.59;90.51
5777;BME280;2914;42.668;23.346;2023-05-09T01:11:21;94778.20;;;15.57;90.79
5777;BME280;2914;42.668;23.346;2023-05-09T01:13:56;94781.85;;;15.48;90.90
5777;BME280;2914;42.668;23.346;2023-05-09T01:16:29;94772.38;;;15.33;92.20
5777;BME280;2914;42.668;23.346;2023-05-09T01:19:04;94775.55;;;15.24;92.15
5777;BME280;2914;42.668;23.346;2023-05-09T01:21:32;94778.02;;;15.05;92.54
5777;BME280;2914;42.668;23.346;2023-05-09T01:24:21;94774.20;;;15.12;91.71
5777;BME280;2914;42.668;23.346;2023-05-09T01:29:35;94762.73;;;15.19;91.91
5777;BME280;2914;42.668;23.346;2023-05-09T01:34:45;94777.83;;;14.90;93.77
5777;BME280;2914;42.668;23.346;2023-05-09T01:37:15;94769.75;;;14.57;95.29
5777;BME280;2914;42.668;23.346;2023-05-09T01:39:48;94771.03;;;14.45;96.10
5777;BME280;2914;42.668;23.346;2023-05-09T01:42:20;94773.05;;;14.47;96.07
5777;BME280;2914;42.668;23.346;2023-05-09T01:44:51;94770.72;;;14.52;95.89
5777;BME280;2914;42.668;23.346;2023-05-09T01:47:21;94768.39;;;14.49;95.74
5777;BME280;2914;42.668;23.346;2023-05-09T01:49:52;94771.81;;;14.67;95.13
5777;BME280;2914;42.668;23.346;2023-05-09T01:52:22;94778.80;;;14.81;94.61
5777;BME280;2914;42.668;23.346;2023-05-09T01:54:53;94782.50;;;15.00;93.37
5777;BME280;2914;42.668;23.346;2023-05-09T01:57:24;94781.84;;;15.15;92.46
5777;BME280;2914;42.668;23.346;2023-05-09T01:59:54;94777.53;;;15.34;92.79
5777;BME280;2914;42.668;23.346;2023-05-09T02:02:24;94780.02;;;15.36;91.00
5777;BME280;2914;42.668;23.346;2023-05-09T02:04:54;94782.03;;;15.38;90.18
5777;BME280;2914;42.668;23.346;2023-05-09T02:07:24;94780.35;;;15.49;89.36
5777;BME280;2914;42.668;23.346;2023-05-09T02:09:55;94783.19;;;15.48;89.12
5777;BME280;2914;42.668;23.346;2023-05-09T02:12:26;94786.52;;;15.54;88.94
5777;BME280;2914;42.668;23.346;2023-05-09T02:14:55;94788.33;;;15.53;88.93
5777;BME280;2914;42.668;23.346;2023-05-09T02:17:24;94783.52;;;15.61;88.32
5777;BME280;2914;42.668;23.346;2023-05-09T02:19:54;94784.16;;;15.63;88.15
5777;BME280;2914;42.668;23.346;2023-05-09T02:22:23;94780.85;;;15.65;87.93
5777;BME280;2914;42.668;23.346;2023-05-09T02:24:53;94773.23;;;15.54;88.65
5777;BME280;2914;42.668;23.346;2023-05-09T02:27:22;94774.38;;;15.68;88.18
5777;BME280;2914;42.668;23.346;2023-05-09T02:29:55;94777.19;;;15.74;87.75
5777;BME280;2914;42.668;23.346;2023-05-09T02:35:05;94775.55;;;15.82;87.37
5777;BME280;2914;42.668;23.346;2023-05-09T02:37:37;94779.17;;;15.72;87.86
5777;BME280;2914;42.668;23.346;2023-05-09T02:40:09;94777.53;;;15.80;86.87
5777;BME280;2914;42.668;23.346;2023-05-09T02:42:39;94783.98;;;15.69;87.27
5777;BME280;2914;42.668;23.346;2023-05-09T02:45:09;94778.19;;;15.69;87.73
5777;BME280;2914;42.668;23.346;2023-05-09T02:47:39;94775.18;;;15.76;87.29
5777;BME280;2914;42.668;23.346;2023-05-09T02:50:10;94772.86;;;15.77;87.14
5777;BME280;2914;42.668;23.346;2023-05-09T02:52:39;94778.01;;;15.79;87.24
5777;BME280;2914;42.668;23.346;2023-05-09T02:55:09;94773.53;;;15.80;87.56
5777;BME280;2914;42.668;23.346;2023-05-09T02:57:38;94782.84;;;15.80;87.61
5777;BME280;2914;42.668;23.346;2023-05-09T03:00:10;94782.67;;;15.81;87.82
5777;BME280;2914;42.668;23.346;2023-05-09T03:02:39;94772.54;;;15.85;87.91
5777;BME280;2914;42.668;23.346;2023-05-09T03:05:09;94778.55;;;15.83;88.28
5777;BME280;2914;42.668;23.346;2023-05-09T03:07:39;94786.83;;;15.84;88.18
5777;BME280;2914;42.668;23.346;2023-05-09T03:10:09;94790.81;;;15.30;89.98
5777;BME280;2914;42.668;23.346;2023-05-09T03:15:22;94790.00;;;15.34;91.11
5777;BME280;2914;42.668;23.346;2023-05-09T03:17:51;94800.43;;;15.06;92.46
5777;BME280;2914;42.668;23.346;2023-05-09T03:20:20;94792.23;;;14.79;94.12
5777;BME280;2914;42.668;23.346;2023-05-09T03:22:49;94802.75;;;14.54;95.99
5777;BME280;2914;42.668;23.346;2023-05-09T03:25:18;94803.13;;;14.25;97.27
5777;BME280;2914;42.668;23.346;2023-05-09T03:27:47;94815.83;;;14.13;98.86
5777;BME280;2914;42.668;23.346;2023-05-09T03:30:16;94823.91;;;14.38;98.37
5777;BME280;2914;42.668;23.346;2023-05-09T03:32:46;94819.67;;;14.57;98.05
5777;BME280;2914;42.668;23.346;2023-05-09T03:35:15;94825.22;;;14.68;97.99
5777;BME280;2914;42.668;23.346;2023-05-09T03:37:44;94825.58;;;14.73;97.56
5777;BME280;2914;42.668;23.346;2023-05-09T03:42:51;94830.94;;;14.90;96.60
5777;BME280;2914;42.668;23.346;2023-05-09T03:48:07;94831.09;;;14.11;100.00
5777;BME280;2914;42.668;23.346;2023-05-09T03:50:40;94836.87;;;13.84;100.00
5777;BME280;2914;42.668;23.346;2023-05-09T03:53:34;94831.45;;;13.68;100.00
5777;BME280;2914;42.668;23.346;2023-05-09T03:56:04;94835.55;;;13.62;100.00
5777;BME280;2914;42.668;23.346;2023-05-09T03:58:44;94835.51;;;13.36;100.00
5777;BME280;2914;42.668;23.346;2023-05-09T04:04:11;94837.08;;;13.29;100.00
5777;BME280;2914;42.668;23.346;2023-05-09T04:06:45;94842.66;;;13.07;100.00
5777;BME280;2914;42.668;23.346;2023-05-09T04:09:15;94839.57;;;13.30;100.00
5777;BME280;2914;42.668;23.346;2023-05-09T04:11:44;94841.83;;;13.25;100.00
5777;BME280;2914;42.668;23.346;2023-05-09T04:16:57;94830.91;;;13.42;100.00
5777;BME280;2914;42.668;23.346;2023-05-09T04:22:12;94838.07;;;13.46;100.00
5777;BME280;2914;42.668;23.346;2023-05-09T04:24:42;94841.80;;;13.21;100.00
5777;BME280;2914;42.668;23.346;2023-05-09T04:27:12;94837.89;;;13.65;100.00
5777;BME280;2914;42.668;23.346;2023-05-09T04:29:41;94839.10;;;13.93;100.00
5777;BME280;2914;42.668;23.346;2023-05-09T04:32:10;94845.54;;;14.17;100.00
5777;BME280;2914;42.668;23.346;2023-05-09T04:34:39;94841.34;;;14.40;100.00
5777;BME280;2914;42.668;23.346;2023-05-09T04:37:08;94843.47;;;14.06;100.00
5777;BME280;2914;42.668;23.346;2023-05-09T04:39:37;94842.23;;;14.23;100.00
5777;BME280;2914;42.668;23.346;2023-05-09T04:42:07;94849.24;;;14.28;100.00
5777;BME280;2914;42.668;23.346;2023-05-09T04:44:36;94847.57;;;14.27;100.00
5777;BME280;2914;42.668;23.346;2023-05-09T04:47:05;94843.70;;;14.52;100.00
5777;BME280;2914;42.668;23.346;2023-05-09T04:49:34;94841.76;;;14.58;99.64
5777;BME280;2914;42.668;23.346;2023-05-09T04:52:03;94840.16;;;14.65;99.37
5777;BME280;2914;42.668;23.346;2023-05-09T04:54:33;94849.78;;;14.66;99.09
5777;BME280;2914;42.668;23.346;2023-05-09T04:57:02;94844.72;;;14.85;98.21
5777;BME280;2914;42.668;23.346;2023-05-09T04:59:33;94846.89;;;14.98;97.43
5777;BME280;2914;42.668;23.346;2023-05-09T05:02:02;94848.23;;;15.02;96.53
5777;BME280;2914;42.668;23.346;2023-05-09T05:04:32;94850.92;;;15.19;95.85
5777;BME280;2914;42.668;23.346;2023-05-09T05:07:01;94851.47;;;15.35;95.08
5777;BME280;2914;42.668;23.346;2023-05-09T05:09:31;94846.64;;;15.42;94.01
5777;BME280;2914;42.668;23.346;2023-05-09T05:12:00;94846.63;;;15.34;93.13
5777;BME280;2914;42.668;23.346;2023-05-09T05:14:29;94844.98;;;15.25;92.16
5777;BME280;2914;42.668;23.346;2023-05-09T05:16:58;94844.98;;;15.33;91.34
5777;BME280;2914;42.668;23.346;2023-05-09T05:19:28;94851.30;;;15.36;91.18
5777;BME280;2914;42.668;23.346;2023-05-09T05:21:56;94840.96;;;15.08;92.00
5777;BME280;2914;42.668;23.346;2023-05-09T05:24:25;94849.05;;;14.99;92.67
5777;BME280;2914;42.668;23.346;2023-05-09T05:26:54;94842.59;;;15.05;91.38
5777;BME280;2914;42.668;23.346;2023-05-09T05:29:24;94849.40;;;15.04;91.77
5777;BME280;2914;42.668;23.346;2023-05-09T05:34:30;94847.83;;;14.81;92.50
5777;BME280;2914;42.668;23.346;2023-05-09T05:36:59;94855.50;;;14.84;92.03
5777;BME280;2914;42.668;23.346;2023-05-09T05:39:29;94846.34;;;14.82;92.19
5777;BME280;2914;42.668;23.346;2023-05-09T05:41:58;94858.69;;;14.61;93.44
5777;BME280;2914;42.668;23.346;2023-05-09T05:44:27;94852.03;;;14.57;93.64
5777;BME280;2914;42.668;23.346;2023-05-09T05:46:56;94853.74;;;14.01;97.45
5777;BME280;2914;42.668;23.346;2023-05-09T05:49:25;94854.42;;;14.07;96.52
5777;BME280;2914;42.668;23.346;2023-05-09T05:51:54;94850.87;;;14.21;96.28
5777;BME280;2914;42.668;23.346;2023-05-09T05:57:07;94853.50;;;14.51;95.92
5777;BME280;2914;42.668;23.346;2023-05-09T05:59:36;94858.16;;;14.57;95.51
5777;BME280;2914;42.668;23.346;2023-05-09T06:02:05;94866.19;;;14.66;94.54
5777;BME280;2914;42.668;23.346;2023-05-09T06:04:34;94858.23;;;14.66;94.91
5777;BME280;2914;42.668;23.346;2023-05-09T06:07:03;94860.08;;;14.69;94.37
5777;BME280;2914;42.668;23.346;2023-05-09T06:09:32;94850.82;;;14.78;92.90
5777;BME280;2914;42.668;23.346;2023-05-09T06:12:01;94852.01;;;14.87;92.14
5777;BME280;2914;42.668;23.346;2023-05-09T06:17:08;94858.22;;;15.04;91.67
5777;BME280;2914;42.668;23.346;2023-05-09T06:22:15;94864.83;;;14.92;91.07
5777;BME280;2914;42.668;23.346;2023-05-09T06:27:27;94855.19;;;14.91;91.15
5777;BME280;2914;42.668;23.346;2023-05-09T06:29:56;94851.61;;;14.70;92.97
5777;BME280;2914;42.668;23.346;2023-05-09T06:35:04;94866.77;;;14.17;92.88
5777;BME280;2914;42.668;23.346;2023-05-09T06:37:34;94866.63;;;13.96;94.92
5777;BME280;2914;42.668;23.346;2023-05-09T06:40:04;94862.63;;;13.92;94.88
5777;BME280;2914;42.668;23.346;2023-05-09T06:42:33;94863.22;;;13.86;94.61
5777;BME280;2914;42.668;23.346;2023-05-09T06:45:03;94867.16;;;14.04;94.81
5777;BME280;2914;42.668;23.346;2023-05-09T06:47:32;94860.84;;;14.01;94.70
5777;BME280;2914;42.668;23.346;2023-05-09T06:52:45;94859.16;;;13.73;92.53
5777;BME280;2914;42.668;23.346;2023-05-09T06:55:14;94860.06;;;13.82;92.22
5777;BME280;2914;42.668;23.346;2023-05-09T07:00:23;94861.98;;;14.24;91.46
5777;BME280;2914;42.668;23.346;2023-05-09T07:02:52;94860.42;;;14.40;89.49
5777;BME280;2914;42.668;23.346;2023-05-09T07:05:21;94869.85;;;14.34;87.12
5777;BME280;2914;42.668;23.346;2023-05-09T07:07:50;94864.27;;;14.46;87.45
5777;BME280;2914;42.668;23.346;2023-05-09T07:10:21;94858.30;;;14.52;87.31
5777;BME280;2914;42.668;23.346;2023-05-09T07:12:50;94858.23;;;14.66;86.15
5777;BME280;2914;42.668;23.346;2023-05-09T07:15:19;94850.98;;;14.41;88.54
5777;BME280;2914;42.668;23.346;2023-05-09T07:17:48;94861.34;;;14.61;88.05
5777;BME280;2914;42.668;23.346;2023-05-09T07:20:17;94853.27;;;14.67;87.71
5777;BME280;2914;42.668;23.346;2023-05-09T07:22:46;94862.77;;;14.78;87.91
5777;BME280;2914;42.668;23.346;2023-05-09T07:25:16;94857.45;;;14.78;86.59
5777;BME280;2914;42.668;23.346;2023-05-09T07:27:45;94854.18;;;14.57;87.48
5777;BME280;2914;42.668;23.346;2023-05-09T07:30:15;94859.55;;;14.35;87.89
5777;BME280;2914;42.668;23.346;2023-05-09T07:32:44;94858.57;;;14.36;88.17
5777;BME280;2914;42.668;23.346;2023-05-09T07:37:56;94851.69;;;14.21;88.63
5777;BME280;2914;42.668;23.346;2023-05-09T07:43:03;94854.59;;;14.67;88.13
5777;BME280;2914;42.668;23.346;2023-05-09T07:45:32;94854.47;;;14.81;87.61
5777;BME280;2914;42.668;23.346;2023-05-09T07:50:46;94865.41;;;14.73;86.14
5777;BME280;2914;42.668;23.346;2023-05-09T07:53:15;94863.13;;;14.83;85.25
5777;BME280;2914;42.668;23.346;2023-05-09T07:55:44;94866.97;;;14.92;85.06
5777;BME280;2914;42.668;23.346;2023-05-09T07:58:14;94868.30;;;14.92;84.93
5777;BME280;2914;42.668;23.346;2023-05-09T08:00:44;94865.82;;;14.95;85.22
5777;BME280;2914;42.668;23.346;2023-05-09T08:03:13;94859.69;;;15.07;85.04
5777;BME280;2914;42.668;23.346;2023-05-09T08:05:42;94860.88;;;15.04;85.69
5777;BME280;2914;42.668;23.346;2023-05-09T08:08:11;94847.91;;;15.09;85.68
5777;BME280;2914;42.668;23.346;2023-05-09T08:10:40;94854.40;;;15.15;84.84
5777;BME280;2914;42.668;23.346;2023-05-09T08:13:09;94863.55;;;15.13;83.03
5777;BME280;2914;42.668;23.346;2023-05-09T08:15:38;94855.06;;;15.09;83.18
5777;BME280;2914;42.668;23.346;2023-05-09T08:18:07;94854.48;;;14.85;85.67
5777;BME280;2914;42.668;23.346;2023-05-09T08:20:36;94860.78;;;14.75;85.45
5777;BME280;2914;42.668;23.346;2023-05-09T08:23:05;94863.62;;;14.86;84.69
5777;BME280;2914;42.668;23.346;2023-05-09T08:25:34;94869.81;;;14.99;84.22
5777;BME280;2914;42.668;23.346;2023-05-09T08:28:03;94870.17;;;15.04;84.85
5777;BME280;2914;42.668;23.346;2023-05-09T08:30:32;94863.20;;;15.12;84.88
5777;BME280;2914;42.668;23.346;2023-05-09T08:33:01;94860.91;;;15.17;82.85
5777;BME280;2914;42.668;23.346;2023-05-09T08:35:31;94863.39;;;15.14;83.59
5777;BME280;2914;42.668;23.346;2023-05-09T08:38:00;94864.55;;;15.16;84.78
5777;BME280;2914;42.668;23.346;2023-05-09T08:40:29;94863.70;;;15.15;85.93
5777;BME280;2914;42.668;23.346;2023-05-09T08:42:57;94852.95;;;15.29;84.18
5777;BME280;2914;42.668;23.346;2023-05-09T08:45:28;94858.92;;;15.35;83.74
5777;BME280;2914;42.668;23.346;2023-05-09T08:47:58;94867.41;;;15.31;83.19
5777;BME280;2914;42.668;23.346;2023-05-09T08:50:29;94854.42;;;15.32;83.57
5777;BME280;2914;42.668;23.346;2023-05-09T08:52:58;94845.97;;;15.28;84.76
5777;BME280;2914;42.668;23.346;2023-05-09T08:55:28;94851.95;;;15.38;83.25
5777;BME280;2914;42.668;23.346;2023-05-09T08:57:57;94848.29;;;15.31;83.78
5777;BME280;2914;42.668;23.346;2023-05-09T09:00:27;94844.80;;;15.22;84.82
5777;BME280;2914;42.668;23.346;2023-05-09T09:02:59;94847.31;;;15.36;82.77
5777;BME280;2914;42.668;23.346;2023-05-09T09:05:30;94854.32;;;14.86;85.70
5777;BME280;2914;42.668;23.346;2023-05-09T09:08:02;94850.88;;;14.94;86.22
5777;BME280;2914;42.668;23.346;2023-05-09T09:10:32;94851.90;;;15.09;84.66
5777;BME280;2914;42.668;23.346;2023-05-09T09:13:03;94844.89;;;14.88;86.67
5777;BME280;2914;42.668;23.346;2023-05-09T09:15:36;94845.91;;;14.99;86.53
5777;BME280;2914;42.668;23.346;2023-05-09T09:20:57;94842.46;;;15.27;84.87
5777;BME280;2914;42.668;23.346;2023-05-09T09:23:25;94843.09;;;15.05;85.95
5777;BME280;2914;42.668;23.346;2023-05-09T09:26:01;94852.48;;;14.79;85.85
5777;BME280;2914;42.668;23.346;2023-05-09T09:28:31;94850.83;;;14.82;86.82
5777;BME280;2914;42.668;23.346;2023-05-09T09:31:00;94855.54;;;14.96;84.90
5777;BME280;2914;42.668;23.346;2023-05-09T09:36:07;94859.64;;;14.90;86.21
5777;BME280;2914;42.668;23.346;2023-05-09T09:38:42;94854.83;;;14.51;88.84
5777;BME280;2914;42.668;23.346;2023-05-09T09:41:12;94859.39;;;14.37;90.49
5777;BME280;2914;42.668;23.346;2023-05-09T09:43:44;94849.24;;;14.28;91.46
5777;BME280;2914;42.668;23.346;2023-05-09T09:46:15;94850.02;;;14.47;90.69
5777;BME280;2914;42.668;23.346;2023-05-09T09:48:47;94844.16;;;14.39;91.50
5777;BME280;2914;42.668;23.346;2023-05-09T09:51:20;94853.06;;;14.30;91.82
5777;BME280;2914;42.668;23.346;2023-05-09T09:53:51;94855.51;;;14.57;89.25
5777;BME280;2914;42.668;23.346;2023-05-09T09:56:20;94868.19;;;14.33;90.04
5777;BME280;2914;42.668;23.346;2023-05-09T09:58:50;94861.11;;;14.16;91.16
5777;BME280;2914;42.668;23.346;2023-05-09T10:01:20;94867.91;;;14.14;91.63
5777;BME280;2914;42.668;23.346;2023-05-09T10:03:50;94856.23;;;14.03;91.68
5777;BME280;2914;42.668;23.346;2023-05-09T10:06:19;94854.08;;;14.06;91.03
5777;BME280;2914;42.668;23.346;2023-05-09T10:11:26;94863.53;;;14.35;91.47
5777;BME280;2914;42.668;23.346;2023-05-09T10:13:55;94849.63;;;14.37;90.89
5777;BME280;2914;42.668;23.346;2023-05-09T10:16:24;94843.34;;;14.38;90.76
5777;BME280;2914;42.668;23.346;2023-05-09T10:18:54;94844.18;;;14.43;90.25
5777;BME280;2914;42.668;23.346;2023-05-09T10:21:23;94841.67;;;14.37;92.14
5777;BME280;2914;42.668;23.346;2023-05-09T10:23:52;94839.05;;;14.46;92.17
5777;BME280;2914;42.668;23.346;2023-05-09T10:26:23;94838.89;;;14.47;91.45
5777;BME280;2914;42.668;23.346;2023-05-09T10:28:57;94852.69;;;14.51;90.89
5777;BME280;2914;42.668;23.346;2023-05-09T10:31:28;94851.63;;;14.43;90.76
5777;BME280;2914;42.668;23.346;2023-05-09T10:34:00;94851.36;;;14.24;91.34
5777;BME280;2914;42.668;23.346;2023-05-09T10:36:30;94851.75;;;14.03;93.40
5777;BME280;2914;42.668;23.346;2023-05-09T10:39:01;94840.73;;;14.20;93.27
5777;BME280;2914;42.668;23.346;2023-05-09T10:41:30;94830.61;;;14.16;93.90
5777;BME280;2914;42.668;23.346;2023-05-09T10:44:00;94838.77;;;14.22;94.82
5777;BME280;2914;42.668;23.346;2023-05-09T10:46:30;94832.16;;;14.27;94.13
5777;BME280;2914;42.668;23.346;2023-05-09T10:48:59;94834.08;;;14.16;93.12
5777;BME280;2914;42.668;23.346;2023-05-09T10:51:28;94841.98;;;14.08;94.01
5777;BME280;2914;42.668;23.346;2023-05-09T10:53:57;94842.25;;;13.97;93.07
5777;BME280;2914;42.668;23.346;2023-05-09T10:56:29;94841.85;;;13.87;94.40
5777;BME280;2914;42.668;23.346;2023-05-09T10:58:59;94840.50;;;14.05;93.16
5777;BME280;2914;42.668;23.346;2023-05-09T11:01:30;94842.44;;;13.99;93.04
5777;BME280;2914;42.668;23.346;2023-05-09T11:04:07;94847.66;;;14.13;92.80
5777;BME280;2914;42.668;23.346;2023-05-09T11:06:43;94847.66;;;14.13;93.68
5777;BME280;2914;42.668;23.346;2023-05-09T11:09:32;94837.30;;;13.98;94.77
5777;BME280;2914;42.668;23.346;2023-05-09T11:12:11;94837.85;;;14.05;95.66
5777;BME280;2914;42.668;23.346;2023-05-09T11:14:42;94853.45;;;14.08;93.54
5777;BME280;2914;42.668;23.346;2023-05-09T11:17:13;94845.52;;;14.13;93.65
5777;BME280;2914;42.668;23.346;2023-05-09T11:20:00;94843.16;;;13.83;94.31
5777;BME280;2914;42.668;23.346;2023-05-09T11:22:32;94860.95;;;13.91;94.58
5777;BME280;2914;42.668;23.346;2023-05-09T11:25:03;94853.37;;;13.96;92.79
5777;BME280;2914;42.668;23.346;2023-05-09T11:30:18;94852.70;;;13.98;94.19
5777;BME280;2914;42.668;23.346;2023-05-09T11:32:51;94848.53;;;13.96;94.49
5777;BME280;2914;42.668;23.346;2023-05-09T11:35:22;94846.34;;;14.13;92.78
5777;BME280;2914;42.668;23.346;2023-05-09T11:37:58;94864.37;;;14.05;92.51
5777;BME280;2914;42.668;23.346;2023-05-09T11:43:07;94831.11;;;14.15;91.96
5777;BME280;2914;42.668;23.346;2023-05-09T11:45:37;94850.77;;;14.04;93.65
5777;BME280;2914;42.668;23.346;2023-05-09T11:50:48;94853.05;;;13.99;94.26
5777;BME280;2914;42.668;23.346;2023-05-09T11:55:54;94865.53;;;13.81;94.85
5777;BME280;2914;42.668;23.346;2023-05-09T12:01:00;94836.56;;;13.65;95.95
5777;BME280;2914;42.668;23.346;2023-05-09T12:03:29;94841.05;;;13.65;95.12
5777;BME280;2914;42.668;23.346;2023-05-09T12:05:58;94839.66;;;13.79;94.75
5777;BME280;2914;42.668;23.346;2023-05-09T12:08:28;94841.10;;;13.73;94.86
5777;BME280;2914;42.668;23.346;2023-05-09T12:11:08;94848.80;;;13.62;95.54
5777;BME280;2914;42.668;23.346;2023-05-09T12:13:45;94848.30;;;13.63;95.23
5777;BME280;2914;42.668;23.346;2023-05-09T12:16:15;94840.03;;;13.62;95.95
5777;BME280;2914;42.668;23.346;2023-05-09T12:18:49;94853.44;;;13.60;95.30
5777;BME280;2914;42.668;23.346;2023-05-09T12:21:19;94837.98;;;13.55;96.25
5777;BME280;2914;42.668;23.346;2023-05-09T12:23:49;94845.67;;;13.45;96.57
5777;BME280;2914;42.668;23.346;2023-05-09T12:26:18;94844.80;;;13.22;97.59
5777;BME280;2914;42.668;23.346;2023-05-09T12:28:47;94837.55;;;13.28;97.95
5777;BME280;2914;42.668;23.346;2023-05-09T12:31:17;94842.06;;;13.32;98.02
5777;BME280;2914;42.668;23.346;2023-05-09T12:33:46;94839.05;;;13.45;97.68
5777;BME280;2914;42.668;23.346;2023-05-09T12:36:16;94843.63;;;13.20;97.52
5777;BME280;2914;42.668;23.346;2023-05-09T12:38:53;94849.16;;;13.13;98.61
5777;BME280;2914;42.668;23.346;2023-05-09T12:41:22;94836.34;;;13.04;99.22
5777;BME280;2914;42.668;23.346;2023-05-09T12:43:52;94840.45;;;12.85;100.00
5777;BME280;2914;42.668;23.346;2023-05-09T12:46:21;94843.30;;;12.87;100.00
5777;BME280;2914;42.668;23.346;2023-05-09T12:48:50;94832.77;;;12.78;100.00
5777;BME280;2914;42.668;23.346;2023-05-09T12:51:20;94831.72;;;12.75;100.00
5777;BME280;2914;42.668;23.346;2023-05-09T12:53:49;94828.27;;;12.92;100.00
5777;BME280;2914;42.668;23.346;2023-05-09T12:56:19;94838.55;;;12.95;100.00
5777;BME280;2914;42.668;23.346;2023-05-09T12:58:50;94821.77;;;12.86;100.00
5777;BME280;2914;42.668;23.346;2023-05-09T13:01:21;94835.16;;;12.85;100.00
5777;BME280;2914;42.668;23.346;2023-05-09T13:06:47;94824.69;;;12.65;100.00
5777;BME280;2914;42.668;23.346;2023-05-09T13:09:16;94831.00;;;12.68;100.00
5777;BME280;2914;42.668;23.346;2023-05-09T13:11:46;94841.84;;;12.61;100.00
5777;BME280;2914;42.668;23.346;2023-05-09T13:14:16;94805.86;;;12.68;100.00
5777;BME280;2914;42.668;23.346;2023-05-09T13:16:45;94814.62;;;12.69;100.00
5777;BME280;2914;42.668;23.346;2023-05-09T13:19:14;94805.84;;;12.82;100.00
5777;BME280;2914;42.668;23.346;2023-05-09T13:21:44;94809.85;;;12.86;100.00
5777;BME280;2914;42.668;23.346;2023-05-09T13:24:13;94805.09;;;12.76;100.00
5777;BME280;2914;42.668;23.346;2023-05-09T13:26:42;94815.95;;;12.55;100.00
5777;BME280;2914;42.668;23.346;2023-05-09T13:29:11;94808.17;;;12.53;100.00
5777;BME280;2914;42.668;23.346;2023-05-09T13:31:40;94800.44;;;12.56;100.00
5777;BME280;2914;42.668;23.346;2023-05-09T13:34:09;94815.80;;;12.70;100.00
5777;BME280;2914;42.668;23.346;2023-05-09T13:36:38;94815.08;;;12.64;100.00
5777;BME280;2914;42.668;23.346;2023-05-09T13:39:07;94813.50;;;12.71;100.00
5777;BME280;2914;42.668;23.346;2023-05-09T13:41:36;94808.72;;;12.57;100.00
5777;BME280;2914;42.668;23.346;2023-05-09T13:44:05;94806.86;;;12.39;100.00
5777;BME280;2914;42.668;23.346;2023-05-09T13:46:34;94801.27;;;12.43;100.00
5777;BME280;2914;42.668;23.346;2023-05-09T13:49:03;94810.63;;;12.37;100.00
5777;BME280;2914;42.668;23.346;2023-05-09T13:51:32;94816.31;;;12.42;100.00
5777;BME280;2914;42.668;23.346;2023-05-09T13:54:01;94813.67;;;12.28;100.00
5777;BME280;2914;42.668;23.346;2023-05-09T13:56:33;94808.38;;;12.28;100.00
5777;BME280;2914;42.668;23.346;2023-05-09T14:01:38;94814.19;;;12.46;100.00
5777;BME280;2914;42.668;23.346;2023-05-09T14:04:07;94812.45;;;12.36;100.00
5777;BME280;2914;42.668;23.346;2023-05-09T14:06:36;94812.64;;;12.53;100.00
5777;BME280;2914;42.668;23.346;2023-05-09T14:09:05;94814.99;;;12.42;100.00
5777;BME280;2914;42.668;23.346;2023-05-09T14:11:35;94805.48;;;12.35;100.00
5777;BME280;2914;42.668;23.346;2023-05-09T14:14:04;94812.14;;;12.53;100.00
5777;BME280;2914;42.668;23.346;2023-05-09T14:16:34;94809.09;;;12.62;100.00
5777;BME280;2914;42.668;23.346;2023-05-09T14:19:03;94814.77;;;12.67;100.00
5777;BME280;2914;42.668;23.346;2023-05-09T14:24:17;94816.40;;;12.64;100.00
5777;BME280;2914;42.668;23.346;2023-05-09T14:26:46;94799.69;;;12.50;100.00
5777;BME280;2914;42.668;23.346;2023-05-09T14:31:54;94811.45;;;12.37;100.00
5777;BME280;2914;42.668;23.346;2023-05-09T14:34:23;94818.61;;;12.27;100.00
5777;BME280;2914;42.668;23.346;2023-05-09T14:36:52;94796.90;;;12.24;100.00
5777;BME280;2914;42.668;23.346;2023-05-09T14:39:21;94810.27;;;12.22;100.00
5777;BME280;2914;42.668;23.346;2023-05-09T14:44:28;94804.61;;;12.45;100.00
5777;BME280;2914;42.668;23.346;2023-05-09T14:49:41;94794.65;;;12.43;100.00
5777;BME280;2914;42.668;23.346;2023-05-09T14:52:10;94801.41;;;12.41;100.00
5777;BME280;2914;42.668;23.346;2023-05-09T14:57:22;94794.60;;;12.38;100.00